sensor_id;sensor_type;location;lat;lon;timestamp;temperature;humidity
40630;DHT22;26329;40.388;-3.710;2022-12-20T00:03:49;9.60;80.90
40630;DHT22;26329;40.388;-3.710;2022-12-20T00:13:51;9.40;80.90
40630;DHT22;26329;40.388;-3.710;2022-12-20T00:23:54;9.30;80.90
40630;DHT22;26329;40.388;-3.710;2022-12-20T00:33:58;9.20;81.00
40630;DHT22;26329;40.388;-3.710;2022-12-20T00:44:00;9.10;81.40
40630;DHT22;26329;40.388;-3.710;2022-12-20T00:54:02;9.10;81.10
40630;DHT22;26329;40.388;-3.710;2022-12-20T01:04:04;9.10;81.40
40630;DHT22;26329;40.388;-3.710;2022-12-20T01:14:14;9.00;81.70
40630;DHT22;26329;40.388;-3.710;2022-12-20T01:24:18;8.80;81.90
40630;DHT22;26329;40.388;-3.710;2022-12-20T01:34:21;8.80;81.90
40630;DHT22;26329;40.388;-3.710;2022-12-20T01:54:33;8.70;82.20
40630;DHT22;26329;40.388;-3.710;2022-12-20T02:04:38;8.60;82.30
40630;DHT22;26329;40.388;-3.710;2022-12-20T02:35:03;8.50;82.30
40630;DHT22;26329;40.388;-3.710;2022-12-20T02:45:08;8.50;82.40
40630;DHT22;26329;40.388;-3.710;2022-12-20T02:55:29;8.50;82.40
40630;DHT22;26329;40.388;-3.710;2022-12-20T03:05:45;8.50;82.20
40630;DHT22;26329;40.388;-3.710;2022-12-20T03:15:48;8.40;82.30
40630;DHT22;26329;40.388;-3.710;2022-12-20T03:25:52;8.40;82.30
40630;DHT22;26329;40.388;-3.710;2022-12-20T03:35:56;8.40;82.40
40630;DHT22;26329;40.388;-3.710;2022-12-20T03:45:59;8.40;82.30
40630;DHT22;26329;40.388;-3.710;2022-12-20T03:56:03;8.30;82.30
40630;DHT22;26329;40.388;-3.710;2022-12-20T04:06:06;8.40;82.40
40630;DHT22;26329;40.388;-3.710;2022-12-20T04:16:10;8.40;82.40
40630;DHT22;26329;40.388;-3.710;2022-12-20T04:26:15;8.40;82.30
40630;DHT22;26329;40.388;-3.710;2022-12-20T04:36:18;8.30;82.40
40630;DHT22;26329;40.388;-3.710;2022-12-20T04:46:22;8.20;82.30
40630;DHT22;26329;40.388;-3.710;2022-12-20T04:56:27;8.20;82.40
40630;DHT22;26329;40.388;-3.710;2022-12-20T05:06:30;8.10;82.50
40630;DHT22;26329;40.388;-3.710;2022-12-20T05:16:34;8.10;82.50
40630;DHT22;26329;40.388;-3.710;2022-12-20T05:26:37;8.10;82.50
40630;DHT22;26329;40.388;-3.710;2022-12-20T05:36:38;8.20;82.60
40630;DHT22;26329;40.388;-3.710;2022-12-20T05:46:40;8.40;82.60
40630;DHT22;26329;40.388;-3.710;2022-12-20T05:56:41;8.50;82.60
40630;DHT22;26329;40.388;-3.710;2022-12-20T06:06:44;8.50;82.70
40630;DHT22;26329;40.388;-3.710;2022-12-20T06:16:45;8.60;82.60
40630;DHT22;26329;40.388;-3.710;2022-12-20T06:26:46;8.70;82.90
40630;DHT22;26329;40.388;-3.710;2022-12-20T06:36:48;8.70;82.90
40630;DHT22;26329;40.388;-3.710;2022-12-20T06:46:49;8.80;82.90
40630;DHT22;26329;40.388;-3.710;2022-12-20T06:56:50;8.80;83.00
40630;DHT22;26329;40.388;-3.710;2022-12-20T07:06:52;8.80;82.90
40630;DHT22;26329;40.388;-3.710;2022-12-20T07:16:53;8.80;82.80
40630;DHT22;26329;40.388;-3.710;2022-12-20T07:26:55;8.60;82.50
40630;DHT22;26329;40.388;-3.710;2022-12-20T07:36:56;8.40;82.40
40630;DHT22;26329;40.388;-3.710;2022-12-20T07:46:57;8.30;82.30
40630;DHT22;26329;40.388;-3.710;2022-12-20T07:57:03;8.30;82.30
40630;DHT22;26329;40.388;-3.710;2022-12-20T08:07:06;8.40;82.10
40630;DHT22;26329;40.388;-3.710;2022-12-20T08:17:08;8.50;82.00
40630;DHT22;26329;40.388;-3.710;2022-12-20T08:27:11;8.50;81.90
40630;DHT22;26329;40.388;-3.710;2022-12-20T08:37:15;8.60;82.00
40630;DHT22;26329;40.388;-3.710;2022-12-20T08:47:17;8.90;81.70
40630;DHT22;26329;40.388;-3.710;2022-12-20T08:57:18;9.10;81.50
40630;DHT22;26329;40.388;-3.710;2022-12-20T09:07:20;9.30;81.10
40630;DHT22;26329;40.388;-3.710;2022-12-20T09:17:21;9.50;80.50
40630;DHT22;26329;40.388;-3.710;2022-12-20T09:27:22;9.70;79.80
40630;DHT22;26329;40.388;-3.710;2022-12-20T09:37:24;9.90;78.60
40630;DHT22;26329;40.388;-3.710;2022-12-20T09:47:25;10.10;78.10
40630;DHT22;26329;40.388;-3.710;2022-12-20T10:27:44;12.30;77.20
40630;DHT22;26329;40.388;-3.710;2022-12-20T10:48:00;13.70;69.10
40630;DHT22;26329;40.388;-3.710;2022-12-20T11:08:27;11.30;75.40
40630;DHT22;26329;40.388;-3.710;2022-12-20T11:59:48;13.40;73.50
40630;DHT22;26329;40.388;-3.710;2022-12-20T12:10:04;12.00;76.90
40630;DHT22;26329;40.388;-3.710;2022-12-20T12:20:28;11.10;79.90
40630;DHT22;26329;40.388;-3.710;2022-12-20T12:30:38;10.90;81.00
40630;DHT22;26329;40.388;-3.710;2022-12-20T12:51:28;10.80;81.50
40630;DHT22;26329;40.388;-3.710;2022-12-20T13:02:21;10.70;81.60
40630;DHT22;26329;40.388;-3.710;2022-12-20T13:22:36;10.80;81.40
40630;DHT22;26329;40.388;-3.710;2022-12-20T13:42:51;10.80;82.10
40630;DHT22;26329;40.388;-3.710;2022-12-20T13:52:56;10.70;82.90
40630;DHT22;26329;40.388;-3.710;2022-12-20T14:03:00;10.70;83.80
40630;DHT22;26329;40.388;-3.710;2022-12-20T14:13:12;10.70;83.90
40630;DHT22;26329;40.388;-3.710;2022-12-20T14:23:22;10.70;84.50
40630;DHT22;26329;40.388;-3.710;2022-12-20T14:33:34;10.80;85.00
40630;DHT22;26329;40.388;-3.710;2022-12-20T14:43:36;10.80;85.40
40630;DHT22;26329;40.388;-3.710;2022-12-20T14:53:39;10.80;85.50
40630;DHT22;26329;40.388;-3.710;2022-12-20T15:03:55;10.80;85.70
40630;DHT22;26329;40.388;-3.710;2022-12-20T15:13:57;10.80;85.90
40630;DHT22;26329;40.388;-3.710;2022-12-20T15:24:01;10.90;86.30
40630;DHT22;26329;40.388;-3.710;2022-12-20T15:44:25;11.00;86.60
40630;DHT22;26329;40.388;-3.710;2022-12-20T16:04:30;11.10;87.10
40630;DHT22;26329;40.388;-3.710;2022-12-20T16:14:32;11.30;87.30
40630;DHT22;26329;40.388;-3.710;2022-12-20T16:24:34;11.30;87.50
40630;DHT22;26329;40.388;-3.710;2022-12-20T16:34:35;11.20;87.60
40630;DHT22;26329;40.388;-3.710;2022-12-20T16:44:37;11.30;87.90
40630;DHT22;26329;40.388;-3.710;2022-12-20T16:54:42;12.20;84.00
40630;DHT22;26329;40.388;-3.710;2022-12-20T17:04:44;11.40;86.80
40630;DHT22;26329;40.388;-3.710;2022-12-20T17:14:46;11.10;87.40
40630;DHT22;26329;40.388;-3.710;2022-12-20T17:24:48;11.00;88.10
40630;DHT22;26329;40.388;-3.710;2022-12-20T17:34:50;11.00;88.10
40630;DHT22;26329;40.388;-3.710;2022-12-20T17:44:51;11.00;88.30
40630;DHT22;26329;40.388;-3.710;2022-12-20T17:54:53;11.10;88.50
40630;DHT22;26329;40.388;-3.710;2022-12-20T18:04:55;11.20;88.60
40630;DHT22;26329;40.388;-3.710;2022-12-20T18:14:57;11.30;88.60
40630;DHT22;26329;40.388;-3.710;2022-12-20T18:24:59;11.30;88.60
40630;DHT22;26329;40.388;-3.710;2022-12-20T18:35:01;11.30;88.80
40630;DHT22;26329;40.388;-3.710;2022-12-20T18:45:03;11.30;88.90
40630;DHT22;26329;40.388;-3.710;2022-12-20T18:55:05;11.30;89.00
40630;DHT22;26329;40.388;-3.710;2022-12-20T19:05:07;11.10;88.80
40630;DHT22;26329;40.388;-3.710;2022-12-20T19:15:09;11.10;88.90
40630;DHT22;26329;40.388;-3.710;2022-12-20T19:25:10;11.00;88.80
40630;DHT22;26329;40.388;-3.710;2022-12-20T19:35:12;11.10;88.70
40630;DHT22;26329;40.388;-3.710;2022-12-20T19:45:14;11.00;88.70
40630;DHT22;26329;40.388;-3.710;2022-12-20T19:55:15;11.00;88.70
40630;DHT22;26329;40.388;-3.710;2022-12-20T20:05:17;11.00;88.60
40630;DHT22;26329;40.388;-3.710;2022-12-20T20:15:19;11.00;88.50
40630;DHT22;26329;40.388;-3.710;2022-12-20T20:25:21;11.10;88.40
40630;DHT22;26329;40.388;-3.710;2022-12-20T20:35:23;11.10;88.50
40630;DHT22;26329;40.388;-3.710;2022-12-20T20:45:25;11.10;88.50
40630;DHT22;26329;40.388;-3.710;2022-12-20T20:55:27;11.10;88.60
40630;DHT22;26329;40.388;-3.710;2022-12-20T21:05:29;11.10;88.50
40630;DHT22;26329;40.388;-3.710;2022-12-20T21:15:32;11.10;88.50
40630;DHT22;26329;40.388;-3.710;2022-12-20T21:25:34;10.90;88.40
40630;DHT22;26329;40.388;-3.710;2022-12-20T21:35:37;10.90;88.70
40630;DHT22;26329;40.388;-3.710;2022-12-20T21:45:39;11.00;88.80
40630;DHT22;26329;40.388;-3.710;2022-12-20T21:55:41;11.10;88.30
40630;DHT22;26329;40.388;-3.710;2022-12-20T22:05:45;11.10;88.50
40630;DHT22;26329;40.388;-3.710;2022-12-20T22:15:48;11.00;88.60
40630;DHT22;26329;40.388;-3.710;2022-12-20T22:25:53;11.10;88.60
40630;DHT22;26329;40.388;-3.710;2022-12-20T22:35:58;11.10;88.70
40630;DHT22;26329;40.388;-3.710;2022-12-20T22:46:00;11.00;88.60
40630;DHT22;26329;40.388;-3.710;2022-12-20T22:56:03;10.90;88.70
40630;DHT22;26329;40.388;-3.710;2022-12-20T23:06:07;10.80;88.80
40630;DHT22;26329;40.388;-3.710;2022-12-20T23:16:11;10.80;88.80
40630;DHT22;26329;40.388;-3.710;2022-12-20T23:26:14;10.80;88.70
40630;DHT22;26329;40.388;-3.710;2022-12-20T23:36:16;10.60;88.80
40630;DHT22;26329;40.388;-3.710;2022-12-20T23:46:19;10.40;89.00
40630;DHT22;26329;40.388;-3.710;2022-12-20T23:56:22;10.40;88.70
